createdAt,value
2023-06-11T00:02:23.124Z,15.50
2023-06-11T00:04:53.508Z,15.50
2023-06-11T00:07:22.712Z,15.50
2023-06-11T00:09:51.362Z,15.40
2023-06-11T00:12:20.008Z,15.40
2023-06-11T00:14:48.762Z,15.30
2023-06-11T00:17:17.409Z,15.30
2023-06-11T00:19:47.332Z,15.20
2023-06-11T00:22:19.158Z,15.10
2023-06-11T00:24:47.956Z,15.10
2023-06-11T00:27:16.621Z,15.10
2023-06-11T00:29:58.792Z,15.10
2023-06-11T00:32:27.462Z,15.10
2023-06-11T00:34:56.114Z,15.00
2023-06-11T00:37:26.928Z,15.00
2023-06-11T00:39:55.680Z,15.00
2023-06-11T00:42:24.477Z,15.10
2023-06-11T00:44:53.213Z,15.10
2023-06-11T00:47:21.841Z,15.00
2023-06-11T00:49:50.626Z,15.00
2023-06-11T00:52:20.634Z,14.90
2023-06-11T00:54:50.929Z,14.90
2023-06-11T00:57:24.276Z,14.80
2023-06-11T01:02:28.948Z,14.80
2023-06-11T01:04:59.880Z,14.80
2023-06-11T01:07:35.538Z,14.80
2023-06-11T01:10:07.065Z,14.70
2023-06-11T01:12:35.778Z,14.70
2023-06-11T01:15:04.608Z,14.60
2023-06-11T01:17:43.198Z,14.60
2023-06-11T01:20:17.029Z,14.70
2023-06-11T01:23:07.284Z,14.60
2023-06-11T01:25:46.936Z,14.50
2023-06-11T01:28:18.923Z,14.50
2023-06-11T01:30:50.834Z,14.50
2023-06-11T01:33:21.362Z,14.40
2023-06-11T01:35:50.342Z,14.40
2023-06-11T01:38:19.265Z,14.40
2023-06-11T01:40:47.942Z,14.40
2023-06-11T01:43:18.011Z,14.30
2023-06-11T01:45:46.634Z,14.20
2023-06-11T01:48:15.217Z,14.30
2023-06-11T01:50:43.830Z,14.30
2023-06-11T01:53:14.045Z,14.30
2023-06-11T01:55:44.116Z,14.10
2023-06-11T01:58:14.043Z,14.10
2023-06-11T02:00:44.043Z,14.00
2023-06-11T02:03:14.342Z,13.90
2023-06-11T02:05:43.106Z,13.90
2023-06-11T02:08:11.773Z,14.00
2023-06-11T02:10:40.481Z,14.00
2023-06-11T02:13:09.109Z,13.90
2023-06-11T02:15:37.752Z,13.90
2023-06-11T02:18:08.330Z,13.90
2023-06-11T02:20:37.012Z,13.90
2023-06-11T02:23:05.804Z,13.90
2023-06-11T02:25:34.377Z,13.90
2023-06-11T02:28:03.464Z,13.90
2023-06-11T02:30:32.025Z,13.80
2023-06-11T02:33:00.704Z,13.80
2023-06-11T02:35:30.733Z,13.80
2023-06-11T02:37:59.484Z,13.70
2023-06-11T02:40:28.093Z,13.80
2023-06-11T02:42:56.717Z,13.80
2023-06-11T02:45:25.299Z,13.80
2023-06-11T02:47:53.865Z,13.70
2023-06-11T02:50:22.614Z,13.70
2023-06-11T02:52:52.684Z,13.70
2023-06-11T02:55:44.076Z,13.70
2023-06-11T02:58:12.715Z,13.70
2023-06-11T03:00:41.425Z,13.80
2023-06-11T03:03:10.375Z,13.80
2023-06-11T03:05:39.197Z,13.80
2023-06-11T03:08:09.213Z,13.70
2023-06-11T03:10:37.931Z,13.70
2023-06-11T03:13:06.549Z,13.70
2023-06-11T03:15:35.577Z,13.60
2023-06-11T03:18:04.764Z,13.60
2023-06-11T03:20:33.427Z,13.70
2023-06-11T03:23:02.113Z,13.70
2023-06-11T03:25:32.134Z,13.70
2023-06-11T03:28:00.753Z,13.70
2023-06-11T03:30:29.353Z,13.70
2023-06-11T03:32:58.681Z,13.70
2023-06-11T03:35:27.305Z,13.70
2023-06-11T03:37:55.937Z,13.70
2023-06-11T03:40:24.632Z,13.80
2023-06-11T03:42:54.746Z,13.80
2023-06-11T03:45:23.408Z,13.80
2023-06-11T03:47:54.493Z,13.90
2023-06-11T03:50:23.220Z,14.00
2023-06-11T03:52:52.258Z,14.00
2023-06-11T03:55:21.011Z,14.10
2023-06-11T03:57:49.860Z,14.10
2023-06-11T04:00:20.652Z,14.30
2023-06-11T04:02:49.633Z,14.50
2023-06-11T04:05:18.374Z,14.60
2023-06-11T04:07:47.041Z,14.70
2023-06-11T04:10:16.483Z,14.80
2023-06-11T04:12:45.204Z,15.00
2023-06-11T04:15:14.190Z,15.10
2023-06-11T04:17:44.240Z,15.70
2023-06-11T04:20:13.278Z,17.30
2023-06-11T04:22:41.903Z,19.00
2023-06-11T04:25:13.096Z,20.50
2023-06-11T04:27:42.801Z,22.10
2023-06-11T04:30:14.390Z,23.10
2023-06-11T04:32:44.634Z,23.70
2023-06-11T04:35:15.889Z,24.30
2023-06-11T04:37:45.158Z,24.50
2023-06-11T04:40:14.522Z,24.70
2023-06-11T04:42:43.557Z,24.90
2023-06-11T04:45:13.568Z,25.50
2023-06-11T04:47:44.105Z,25.70
2023-06-11T04:50:12.902Z,26.00
2023-06-11T04:52:44.268Z,26.40
2023-06-11T04:55:13.792Z,25.80
2023-06-11T04:57:42.969Z,24.30
2023-06-11T05:00:13.073Z,22.60
2023-06-11T05:02:46.019Z,21.10
2023-06-11T05:05:15.528Z,19.80
2023-06-11T05:07:44.580Z,18.90
2023-06-11T05:10:14.774Z,18.20
2023-06-11T05:12:43.467Z,17.70
2023-06-11T05:15:13.228Z,17.30
2023-06-11T05:17:43.472Z,17.10
2023-06-11T05:20:12.431Z,17.00
2023-06-11T05:22:41.201Z,17.00
2023-06-11T05:25:10.620Z,16.90
2023-06-11T05:27:39.534Z,16.80
2023-06-11T05:30:09.796Z,16.70
2023-06-11T05:32:39.843Z,16.60
2023-06-11T05:35:11.474Z,16.60
2023-06-11T05:37:40.231Z,16.60
2023-06-11T05:40:10.570Z,16.60
2023-06-11T05:42:39.231Z,16.70
2023-06-11T05:45:09.143Z,16.80
2023-06-11T05:47:37.965Z,16.90
2023-06-11T05:50:10.474Z,16.90
2023-06-11T05:52:39.059Z,16.90
2023-06-11T05:55:08.876Z,16.90
2023-06-11T05:57:37.679Z,16.90
2023-06-11T06:00:07.868Z,16.90
2023-06-11T06:02:36.648Z,16.80
2023-06-11T06:05:05.672Z,16.80
2023-06-11T06:07:35.728Z,16.90
2023-06-11T06:10:05.125Z,16.90
2023-06-11T06:12:33.808Z,17.00
2023-06-11T06:15:02.399Z,17.00
2023-06-11T06:17:31.129Z,17.20
2023-06-11T06:19:59.769Z,17.20
2023-06-11T06:22:28.419Z,17.20
2023-06-11T06:25:01.618Z,17.30
2023-06-11T06:27:31.740Z,17.40
2023-06-11T06:30:00.365Z,17.40
2023-06-11T06:32:29.472Z,17.40
2023-06-11T06:34:58.122Z,17.40
2023-06-11T06:37:29.088Z,17.40
2023-06-11T06:39:59.246Z,17.60
2023-06-11T06:42:28.826Z,17.70
2023-06-11T06:44:58.805Z,17.70
2023-06-11T06:47:27.615Z,17.80
2023-06-11T06:49:56.397Z,17.90
2023-06-11T06:52:25.034Z,18.00
2023-06-11T06:54:53.663Z,18.00
2023-06-11T06:57:24.093Z,18.10
2023-06-11T06:59:52.792Z,18.20
2023-06-11T07:02:22.117Z,18.30
2023-06-11T07:04:53.320Z,18.40
2023-06-11T07:07:29.024Z,18.40
2023-06-11T07:09:58.143Z,18.40
2023-06-11T07:12:28.160Z,18.50
2023-06-11T07:14:56.819Z,18.60
2023-06-11T07:17:27.286Z,18.60
2023-06-11T07:19:55.942Z,18.70
2023-06-11T07:22:24.689Z,18.80
2023-06-11T07:24:53.318Z,18.80
2023-06-11T07:27:22.103Z,18.80
2023-06-11T07:29:54.239Z,18.80
2023-06-11T07:32:24.310Z,18.80
2023-06-11T07:34:53.028Z,18.80
2023-06-11T07:37:21.686Z,18.80
2023-06-11T07:39:52.463Z,18.90
2023-06-11T07:42:21.979Z,19.00
2023-06-11T07:44:52.107Z,19.10
2023-06-11T07:47:21.067Z,19.20
2023-06-11T07:49:53.138Z,19.20
2023-06-11T07:52:22.196Z,19.30
2023-06-11T07:54:52.331Z,19.30
2023-06-11T07:57:21.016Z,19.30
2023-06-11T07:59:49.581Z,19.30
2023-06-11T08:02:19.614Z,19.40
2023-06-11T08:04:48.162Z,19.30
2023-06-11T08:07:16.970Z,19.30
2023-06-11T08:09:45.505Z,19.30
2023-06-11T08:12:14.641Z,19.40
2023-06-11T08:14:43.218Z,19.40
2023-06-11T08:17:11.733Z,19.40
2023-06-11T08:19:41.681Z,19.50
2023-06-11T08:22:10.130Z,19.60
2023-06-11T08:24:38.634Z,19.70
2023-06-11T08:27:08.729Z,19.70
2023-06-11T08:29:37.346Z,19.80
2023-06-11T08:32:06.519Z,19.80
2023-06-11T08:34:35.014Z,19.90
2023-06-11T08:37:05.267Z,19.90
2023-06-11T08:39:33.711Z,20.00
2023-06-11T08:42:02.306Z,20.00
2023-06-11T08:44:30.892Z,20.00
2023-06-11T08:47:04.110Z,20.00
2023-06-11T08:49:35.145Z,19.90
2023-06-11T08:52:11.851Z,20.00
2023-06-11T08:54:41.742Z,20.00
2023-06-11T08:57:11.041Z,20.00
2023-06-11T08:59:39.733Z,20.00
2023-06-11T09:02:14.950Z,20.10
2023-06-11T09:04:45.306Z,20.10
2023-06-11T09:07:26.024Z,20.20
2023-06-11T09:10:04.661Z,20.40
2023-06-11T09:12:39.311Z,20.40
2023-06-11T09:15:08.979Z,20.50
2023-06-11T09:17:38.930Z,20.40
2023-06-11T09:20:09.913Z,20.40
2023-06-11T09:22:41.729Z,20.40
2023-06-11T09:25:12.435Z,20.60
2023-06-11T09:27:42.096Z,20.50
2023-06-11T09:30:14.139Z,20.50
2023-06-11T09:32:50.941Z,20.60
2023-06-11T09:35:22.180Z,20.70
2023-06-11T09:38:01.161Z,20.80
2023-06-11T09:40:36.678Z,21.10
2023-06-11T09:49:55.022Z,20.90
2023-06-11T09:52:57.360Z,20.90
2023-06-11T09:56:10.239Z,20.90
2023-06-11T09:58:42.763Z,20.90
2023-06-11T10:01:15.659Z,20.90
2023-06-11T10:03:52.881Z,20.90
2023-06-11T10:06:27.570Z,20.90
2023-06-11T10:09:10.903Z,21.00
2023-06-11T10:11:43.457Z,21.00
2023-06-11T10:14:29.010Z,21.10
2023-06-11T10:17:03.597Z,21.20
2023-06-11T10:19:40.480Z,21.20
2023-06-11T10:22:09.315Z,21.20
2023-06-11T10:24:43.654Z,21.20
2023-06-11T10:27:23.470Z,21.10
2023-06-11T10:30:05.336Z,21.30
2023-06-11T10:32:38.552Z,21.30
2023-06-11T10:36:15.790Z,21.30
2023-06-11T10:42:11.451Z,21.30
2023-06-11T10:45:12.462Z,21.40
2023-06-11T10:47:51.087Z,21.40
2023-06-11T11:30:39.304Z,21.90
2023-06-11T11:41:30.296Z,22.70
2023-06-11T11:44:11.373Z,22.90
2023-06-11T11:46:41.119Z,23.00
2023-06-11T11:49:35.576Z,23.00
2023-06-11T12:28:29.406Z,23.30
2023-06-11T12:31:13.756Z,23.50
2023-06-11T12:36:34.698Z,24.00
2023-06-11T12:39:20.589Z,24.10
2023-06-11T12:42:50.590Z,24.20
2023-06-11T12:49:06.415Z,24.20
2023-06-11T12:51:47.825Z,23.60
2023-06-11T12:54:17.473Z,23.60
2023-06-11T12:59:44.413Z,23.80
2023-06-11T13:02:18.429Z,23.60
2023-06-11T13:04:49.904Z,23.80
2023-06-11T13:07:20.162Z,24.00
2023-06-11T13:09:50.783Z,24.10
2023-06-11T13:12:19.664Z,24.30
2023-06-11T13:14:49.023Z,24.30
2023-06-11T13:17:17.720Z,24.20
2023-06-11T13:19:46.665Z,24.20
2023-06-11T13:22:17.606Z,24.40
2023-06-11T13:24:47.812Z,24.50
2023-06-11T13:27:16.611Z,24.50
2023-06-11T13:29:45.403Z,24.50
2023-06-11T13:32:14.208Z,24.20
2023-06-11T13:34:42.901Z,24.00
2023-06-11T13:37:12.089Z,23.90
2023-06-11T13:39:40.898Z,23.80
2023-06-11T13:42:11.761Z,23.90
2023-06-11T13:44:47.213Z,24.00
2023-06-11T13:47:16.033Z,24.00
2023-06-11T13:49:44.843Z,23.90
2023-06-11T13:52:16.901Z,23.70
2023-06-11T13:54:47.506Z,23.60
2023-06-11T13:57:24.018Z,23.60
2023-06-11T14:00:38.091Z,23.40
2023-06-11T14:03:07.353Z,23.40
2023-06-11T14:05:42.727Z,23.30
2023-06-11T14:08:17.559Z,23.50
2023-06-11T14:10:46.847Z,23.60
2023-06-11T14:13:17.302Z,23.80
2023-06-11T14:15:46.305Z,24.00
2023-06-11T14:18:15.087Z,24.00
2023-06-11T14:20:44.166Z,23.90
2023-06-11T14:23:16.641Z,23.80
2023-06-11T14:25:45.773Z,23.80
2023-06-11T14:28:38.174Z,23.80
2023-06-11T14:31:16.094Z,23.90
2023-06-11T14:33:48.806Z,24.10
2023-06-11T14:36:41.539Z,23.80
2023-06-11T14:43:43.742Z,23.80
2023-06-11T14:46:20.358Z,24.10
2023-06-11T14:49:29.173Z,24.40
2023-06-11T14:52:00.822Z,24.70
2023-06-11T14:54:30.158Z,25.10
2023-06-11T14:56:59.171Z,25.40
2023-06-11T14:59:28.329Z,25.60
2023-06-11T15:02:01.366Z,26.00
2023-06-11T15:04:30.473Z,26.30
2023-06-11T15:06:59.391Z,26.20
2023-06-11T15:09:31.393Z,25.90
2023-06-11T15:15:56.720Z,25.70
2023-06-11T15:18:27.468Z,26.10
2023-06-11T15:20:56.681Z,26.70
2023-06-11T15:23:27.789Z,27.40
2023-06-11T15:26:00.921Z,28.10
2023-06-11T15:28:30.024Z,28.30
2023-06-11T15:30:59.172Z,28.30
2023-06-11T15:33:29.834Z,28.40
2023-06-11T15:35:59.378Z,28.40
2023-06-11T15:38:28.674Z,27.80
2023-06-11T15:40:57.914Z,27.10
2023-06-11T15:43:26.918Z,26.30
2023-06-11T15:45:55.814Z,25.60
2023-06-11T15:53:01.811Z,24.50
2023-06-11T15:56:02.554Z,25.00
2023-06-11T16:06:24.578Z,26.90
2023-06-11T16:08:54.017Z,26.40
2023-06-11T16:11:26.974Z,25.80
2023-06-11T16:14:01.831Z,25.30
2023-06-11T16:16:31.372Z,24.90
2023-06-11T16:19:10.683Z,24.50
2023-06-11T16:21:39.930Z,24.40
2023-06-11T16:24:23.841Z,24.10
2023-06-11T16:27:00.101Z,24.10
2023-06-11T16:29:48.021Z,24.10
2023-06-11T16:32:35.274Z,24.10
2023-06-11T16:35:06.296Z,24.00
2023-06-11T16:37:41.289Z,23.80
2023-06-11T16:40:12.995Z,23.70
2023-06-11T16:42:43.889Z,23.50
2023-06-11T16:45:15.311Z,23.30
2023-06-11T16:47:44.479Z,23.20
2023-06-11T16:50:14.192Z,22.90
2023-06-11T16:52:43.279Z,22.70
2023-06-11T16:55:13.169Z,22.70
2023-06-11T16:57:43.714Z,22.50
2023-06-11T17:00:17.852Z,22.30
2023-06-11T17:02:58.926Z,22.20
2023-06-11T17:05:34.186Z,22.20
2023-06-11T17:08:11.774Z,22.20
2023-06-11T17:10:41.253Z,22.30
2023-06-11T17:13:14.694Z,22.40
2023-06-11T17:15:52.701Z,22.40
2023-06-11T17:18:21.413Z,22.40
2023-06-11T17:20:50.484Z,22.30
2023-06-11T17:23:19.594Z,22.20
2023-06-11T17:25:50.275Z,22.00
2023-06-11T17:28:25.321Z,21.70
2023-06-11T17:30:57.358Z,21.70
2023-06-11T17:33:27.420Z,21.60
2023-06-11T17:36:09.616Z,21.50
2023-06-11T17:38:38.721Z,21.40
2023-06-11T17:41:08.285Z,21.20
2023-06-11T17:43:41.725Z,21.10
2023-06-11T17:46:13.749Z,21.20
2023-06-11T17:48:42.718Z,21.00
2023-06-11T17:51:11.951Z,20.90
2023-06-11T17:53:40.855Z,20.80
2023-06-11T17:56:09.640Z,20.80
2023-06-11T17:58:43.239Z,20.70
2023-06-11T18:01:12.805Z,20.70
2023-06-11T18:03:41.931Z,20.60
2023-06-11T18:06:28.816Z,20.50
2023-06-11T18:08:57.884Z,20.40
2023-06-11T18:11:27.078Z,20.30
2023-06-11T18:13:57.998Z,20.20
2023-06-11T18:16:41.324Z,20.20
2023-06-11T18:19:10.873Z,20.20
2023-06-11T18:21:52.176Z,20.30
2023-06-11T18:24:25.057Z,20.70
2023-06-11T18:27:07.184Z,20.50
2023-06-11T18:29:59.780Z,20.60
2023-06-11T18:32:50.418Z,20.60
2023-06-11T18:35:43.726Z,20.60
2023-06-11T18:38:24.698Z,20.80
2023-06-11T18:40:55.504Z,20.50
2023-06-11T18:43:26.221Z,20.40
2023-06-11T18:46:17.096Z,20.30
2023-06-11T18:48:57.469Z,20.10
2023-06-11T18:51:28.977Z,19.90
2023-06-11T18:54:06.061Z,19.80
2023-06-11T18:56:45.206Z,19.70
2023-06-11T18:59:17.114Z,19.50
2023-06-11T19:01:53.808Z,19.30
2023-06-11T19:04:25.521Z,19.10
2023-06-11T19:07:06.401Z,19.20
2023-06-11T19:10:00.518Z,19.00
2023-06-11T19:12:29.730Z,19.00
2023-06-11T19:14:59.146Z,19.00
2023-06-11T19:17:29.792Z,18.90
2023-06-11T19:20:03.412Z,18.70
2023-06-11T19:22:36.582Z,18.60
2023-06-11T19:25:07.272Z,18.50
2023-06-11T19:27:36.745Z,18.40
2023-06-11T19:30:07.072Z,18.20
2023-06-11T19:32:40.442Z,18.10
2023-06-11T19:35:10.982Z,17.90
2023-06-11T19:37:40.284Z,17.80
2023-06-11T19:40:16.059Z,17.70
2023-06-11T19:43:04.457Z,17.50
2023-06-11T19:45:36.777Z,17.50
2023-06-11T19:48:16.225Z,17.40
2023-06-11T19:50:45.970Z,17.30
2023-06-11T19:53:19.938Z,17.20
2023-06-11T19:55:52.617Z,16.90
2023-06-11T19:58:33.831Z,17.20
2023-06-11T20:01:12.516Z,17.10
2023-06-11T20:03:43.349Z,17.10
2023-06-11T20:06:13.131Z,17.00
2023-06-11T20:09:14.053Z,17.00
2023-06-11T20:12:14.751Z,16.90
2023-06-11T20:14:55.103Z,16.80
2023-06-11T20:17:38.597Z,16.60
2023-06-11T20:23:44.295Z,16.50
2023-06-11T20:26:16.044Z,16.50
2023-06-11T20:28:44.967Z,16.20
2023-06-11T20:31:18.715Z,16.10
2023-06-11T20:33:58.570Z,16.00
2023-06-11T20:36:30.163Z,15.90
2023-06-11T20:39:08.205Z,15.70
2023-06-11T20:41:41.268Z,15.30
2023-06-11T20:44:12.919Z,15.50
2023-06-11T20:46:42.017Z,15.30
2023-06-11T20:49:11.239Z,15.30
2023-06-11T20:51:43.123Z,15.20
2023-06-11T20:54:14.142Z,15.20
2023-06-11T20:56:43.142Z,15.20
2023-06-11T20:59:26.086Z,15.20
2023-06-11T21:01:57.821Z,15.10
2023-06-11T21:04:29.800Z,15.00
2023-06-11T21:07:01.636Z,14.90
2023-06-11T21:09:36.815Z,14.80
2023-06-11T21:12:06.848Z,14.80
2023-06-11T21:14:41.925Z,14.70
2023-06-11T21:17:10.588Z,14.70
2023-06-11T21:19:39.270Z,14.60
2023-06-11T21:22:09.518Z,14.60
2023-06-11T21:24:38.907Z,14.60
2023-06-11T21:27:08.628Z,14.60
2023-06-11T21:29:37.954Z,14.60
2023-06-11T21:32:10.202Z,14.50
2023-06-11T21:34:39.588Z,14.40
2023-06-11T21:37:11.922Z,14.30
2023-06-11T21:39:40.837Z,14.20
2023-06-11T21:42:10.462Z,14.20
2023-06-11T21:44:39.243Z,14.10
2023-06-11T21:47:10.030Z,14.10
2023-06-11T21:49:38.829Z,14.00
2023-06-11T21:52:17.930Z,14.00
2023-06-11T21:54:47.334Z,13.90
2023-06-11T21:57:16.638Z,13.90
2023-06-11T21:59:45.609Z,13.80
2023-06-11T22:02:14.198Z,13.70
2023-06-11T22:04:42.954Z,13.70
2023-06-11T22:07:14.645Z,13.60
2023-06-11T22:09:44.175Z,13.50
2023-06-11T22:12:14.404Z,13.50
2023-06-11T22:14:43.132Z,13.50
2023-06-11T22:17:15.817Z,13.40
2023-06-11T22:19:46.214Z,13.30
2023-06-11T22:22:16.338Z,13.30
2023-06-11T22:24:46.232Z,13.20
2023-06-11T22:27:15.118Z,13.20
2023-06-11T22:29:43.822Z,13.10
2023-06-11T22:32:14.135Z,13.10
2023-06-11T22:34:43.515Z,13.10
2023-06-11T22:37:13.035Z,13.00
2023-06-11T22:39:43.424Z,13.00
2023-06-11T22:42:12.976Z,13.00
2023-06-11T22:44:41.545Z,13.00
2023-06-11T22:47:11.718Z,12.90
2023-06-11T22:49:40.540Z,12.90
2023-06-11T22:52:10.204Z,12.80
2023-06-11T22:54:39.731Z,12.70
2023-06-11T22:57:09.837Z,12.70
2023-06-11T22:59:38.802Z,12.70
2023-06-11T23:02:10.741Z,12.70
2023-06-11T23:04:40.740Z,12.60
2023-06-11T23:07:12.471Z,12.60
2023-06-11T23:09:41.129Z,12.50
2023-06-11T23:12:13.094Z,12.50
2023-06-11T23:14:41.758Z,12.40
2023-06-11T23:17:10.888Z,12.40
2023-06-11T23:19:41.839Z,12.40
2023-06-11T23:22:10.443Z,12.30
2023-06-11T23:24:42.072Z,12.30
2023-06-11T23:27:14.726Z,12.20
2023-06-11T23:29:44.941Z,12.20
2023-06-11T23:32:13.712Z,12.20
2023-06-11T23:34:42.363Z,12.10
2023-06-11T23:37:10.998Z,12.10
2023-06-11T23:39:40.031Z,12.00
2023-06-11T23:42:09.668Z,12.00
2023-06-11T23:44:39.626Z,11.90
2023-06-11T23:47:08.610Z,12.00
2023-06-11T23:49:37.222Z,11.90
2023-06-11T23:52:06.805Z,11.80
2023-06-11T23:54:35.472Z,11.80
2023-06-11T23:57:04.207Z,11.70
2023-06-11T23:59:32.784Z,11.70
